sensor_id;sensor_type;location;lat;lon;timestamp;pressure;altitude;pressure_sealevel;temperature;humidity
26563;BME280;14217;50.986;5.826;2023-03-03T00:02:30;101643.03;;;15.97;37.72
26563;BME280;14217;50.986;5.826;2023-03-03T00:07:32;101643.72;;;16.07;37.58
26563;BME280;14217;50.986;5.826;2023-03-03T00:12:34;101661.31;;;16.08;37.44
26563;BME280;14217;50.986;5.826;2023-03-03T00:17:41;101648.22;;;16.01;37.83
26563;BME280;14217;50.986;5.826;2023-03-03T00:22:43;101656.88;;;16.10;37.36
26563;BME280;14217;50.986;5.826;2023-03-03T00:27:45;101653.34;;;16.09;37.51
26563;BME280;14217;50.986;5.826;2023-03-03T00:32:47;101653.63;;;15.95;37.79
26563;BME280;14217;50.986;5.826;2023-03-03T00:37:55;101643.78;;;16.03;37.75
26563;BME280;14217;50.986;5.826;2023-03-03T00:42:59;101653.59;;;15.98;37.68
26563;BME280;14217;50.986;5.826;2023-03-03T00:48:32;101660.47;;;16.05;37.66
26563;BME280;14217;50.986;5.826;2023-03-03T00:53:30;101659.75;;;15.97;37.80
26563;BME280;14217;50.986;5.826;2023-03-03T00:58:33;101668.66;;;15.93;37.86
26563;BME280;14217;50.986;5.826;2023-03-03T01:03:35;101660.22;;;16.18;37.33
26563;BME280;14217;50.986;5.826;2023-03-03T01:08:37;101664.81;;;16.10;37.36
26563;BME280;14217;50.986;5.826;2023-03-03T01:13:41;101671.03;;;16.07;37.37
26563;BME280;14217;50.986;5.826;2023-03-03T01:18:44;101678.00;;;16.10;37.38
26563;BME280;14217;50.986;5.826;2023-03-03T01:23:46;101679.91;;;16.04;37.74
26563;BME280;14217;50.986;5.826;2023-03-03T01:28:48;101677.06;;;16.12;37.55
26563;BME280;14217;50.986;5.826;2023-03-03T01:33:50;101673.72;;;16.04;37.56
26563;BME280;14217;50.986;5.826;2023-03-03T01:38:52;101684.28;;;16.04;37.62
26563;BME280;14217;50.986;5.826;2023-03-03T01:43:53;101693.75;;;16.16;37.27
26563;BME280;14217;50.986;5.826;2023-03-03T01:48:58;101696.38;;;16.17;37.41
26563;BME280;14217;50.986;5.826;2023-03-03T01:54:06;101692.16;;;16.09;37.49
26563;BME280;14217;50.986;5.826;2023-03-03T01:59:20;101693.03;;;16.08;37.58
26563;BME280;14217;50.986;5.826;2023-03-03T02:04:25;101687.72;;;16.09;37.42
26563;BME280;14217;50.986;5.826;2023-03-03T02:09:45;101681.66;;;16.04;37.46
26563;BME280;14217;50.986;5.826;2023-03-03T02:14:50;101689.56;;;16.04;37.27
26563;BME280;14217;50.986;5.826;2023-03-03T02:20:02;101694.09;;;16.00;37.64
26563;BME280;14217;50.986;5.826;2023-03-03T02:25:10;101698.44;;;16.03;37.66
26563;BME280;14217;50.986;5.826;2023-03-03T02:30:18;101688.78;;;16.00;37.49
26563;BME280;14217;50.986;5.826;2023-03-03T02:40:36;101701.09;;;16.01;37.53
26563;BME280;14217;50.986;5.826;2023-03-03T02:45:42;101707.03;;;16.13;37.40
26563;BME280;14217;50.986;5.826;2023-03-03T02:50:44;101708.13;;;16.02;37.53
26563;BME280;14217;50.986;5.826;2023-03-03T02:55:47;101705.31;;;16.10;37.34
26563;BME280;14217;50.986;5.826;2023-03-03T03:00:49;101704.53;;;16.07;37.64
26563;BME280;14217;50.986;5.826;2023-03-03T03:05:51;101708.38;;;15.90;37.63
26563;BME280;14217;50.986;5.826;2023-03-03T03:10:53;101710.06;;;15.94;37.54
26563;BME280;14217;50.986;5.826;2023-03-03T03:15:55;101716.13;;;15.99;37.73
26563;BME280;14217;50.986;5.826;2023-03-03T03:21:05;101704.22;;;16.20;37.22
26563;BME280;14217;50.986;5.826;2023-03-03T03:26:07;101712.47;;;16.07;37.52
26563;BME280;14217;50.986;5.826;2023-03-03T03:31:09;101711.44;;;16.14;37.52
26563;BME280;14217;50.986;5.826;2023-03-03T03:36:11;101710.81;;;15.99;37.77
26563;BME280;14217;50.986;5.826;2023-03-03T03:41:13;101725.47;;;16.17;37.41
26563;BME280;14217;50.986;5.826;2023-03-03T03:46:15;101717.69;;;16.10;37.29
26563;BME280;14217;50.986;5.826;2023-03-03T03:51:18;101708.75;;;16.15;37.46
26563;BME280;14217;50.986;5.826;2023-03-03T03:56:20;101714.19;;;16.08;37.49
26563;BME280;14217;50.986;5.826;2023-03-03T04:01:22;101724.72;;;16.11;37.42
26563;BME280;14217;50.986;5.826;2023-03-03T04:06:24;101719.38;;;16.12;37.25
26563;BME280;14217;50.986;5.826;2023-03-03T04:11:26;101716.91;;;16.04;37.58
26563;BME280;14217;50.986;5.826;2023-03-03T04:16:28;101725.50;;;16.14;37.25
26563;BME280;14217;50.986;5.826;2023-03-03T04:21:30;101731.84;;;16.05;37.39
26563;BME280;14217;50.986;5.826;2023-03-03T04:26:32;101727.47;;;16.04;37.52
26563;BME280;14217;50.986;5.826;2023-03-03T04:31:35;101721.19;;;16.10;37.42
26563;BME280;14217;50.986;5.826;2023-03-03T04:36:36;101738.09;;;16.01;37.79
26563;BME280;14217;50.986;5.826;2023-03-03T04:41:38;101738.84;;;16.08;37.43
26563;BME280;14217;50.986;5.826;2023-03-03T04:46:40;101734.53;;;16.04;37.55
26563;BME280;14217;50.986;5.826;2023-03-03T04:51:42;101742.44;;;16.05;37.51
26563;BME280;14217;50.986;5.826;2023-03-03T04:56:44;101746.00;;;16.04;37.63
26563;BME280;14217;50.986;5.826;2023-03-03T05:01:46;101750.34;;;16.05;37.55
26563;BME280;14217;50.986;5.826;2023-03-03T05:06:48;101761.78;;;16.08;37.51
26563;BME280;14217;50.986;5.826;2023-03-03T05:11:50;101763.44;;;16.13;37.45
26563;BME280;14217;50.986;5.826;2023-03-03T05:16:52;101762.81;;;16.00;37.77
26563;BME280;14217;50.986;5.826;2023-03-03T05:21:54;101759.22;;;16.03;37.75
26563;BME280;14217;50.986;5.826;2023-03-03T05:26:56;101757.34;;;16.10;37.40
26563;BME280;14217;50.986;5.826;2023-03-03T05:31:58;101759.16;;;16.06;37.48
26563;BME280;14217;50.986;5.826;2023-03-03T05:37:00;101755.50;;;16.13;37.28
26563;BME280;14217;50.986;5.826;2023-03-03T05:42:02;101766.00;;;16.18;37.14
26563;BME280;14217;50.986;5.826;2023-03-03T05:47:04;101769.00;;;15.98;37.75
26563;BME280;14217;50.986;5.826;2023-03-03T05:52:06;101768.88;;;16.04;37.47
26563;BME280;14217;50.986;5.826;2023-03-03T05:57:09;101766.22;;;16.05;37.45
26563;BME280;14217;50.986;5.826;2023-03-03T06:02:13;101770.56;;;16.10;37.60
26563;BME280;14217;50.986;5.826;2023-03-03T06:07:15;101787.47;;;15.99;37.43
26563;BME280;14217;50.986;5.826;2023-03-03T06:12:17;101778.66;;;16.00;37.43
26563;BME280;14217;50.986;5.826;2023-03-03T06:17:19;101777.75;;;16.01;37.45
26563;BME280;14217;50.986;5.826;2023-03-03T06:22:21;101787.38;;;16.05;37.47
26563;BME280;14217;50.986;5.826;2023-03-03T06:27:23;101792.78;;;15.98;37.54
26563;BME280;14217;50.986;5.826;2023-03-03T06:32:25;101790.81;;;16.11;37.57
26563;BME280;14217;50.986;5.826;2023-03-03T06:37:27;101803.22;;;16.05;37.37
26563;BME280;14217;50.986;5.826;2023-03-03T06:42:29;101798.81;;;16.06;37.58
26563;BME280;14217;50.986;5.826;2023-03-03T06:47:32;101809.59;;;15.95;37.70
26563;BME280;14217;50.986;5.826;2023-03-03T06:52:34;101809.34;;;16.09;37.35
26563;BME280;14217;50.986;5.826;2023-03-03T06:57:36;101830.63;;;16.01;37.71
26563;BME280;14217;50.986;5.826;2023-03-03T07:02:39;101842.53;;;15.76;38.90
26563;BME280;14217;50.986;5.826;2023-03-03T07:07:41;101856.81;;;15.62;40.05
26563;BME280;14217;50.986;5.826;2023-03-03T07:12:43;101849.88;;;15.55;40.46
26563;BME280;14217;50.986;5.826;2023-03-03T07:17:47;101861.28;;;15.57;39.92
26563;BME280;14217;50.986;5.826;2023-03-03T07:22:51;101866.47;;;15.65;38.99
26563;BME280;14217;50.986;5.826;2023-03-03T07:27:57;101870.03;;;15.62;38.97
26563;BME280;14217;50.986;5.826;2023-03-03T07:33:01;101867.44;;;15.58;38.75
26563;BME280;14217;50.986;5.826;2023-03-03T07:38:24;101884.97;;;15.62;38.77
26563;BME280;14217;50.986;5.826;2023-03-03T07:43:39;101882.41;;;15.59;38.09
26563;BME280;14217;50.986;5.826;2023-03-03T07:48:44;101885.13;;;15.53;39.25
26563;BME280;14217;50.986;5.826;2023-03-03T07:53:46;101891.69;;;15.86;38.90
26563;BME280;14217;50.986;5.826;2023-03-03T07:58:48;101898.09;;;15.70;39.33
26563;BME280;14217;50.986;5.826;2023-03-03T08:03:50;101900.78;;;15.67;39.16
26563;BME280;14217;50.986;5.826;2023-03-03T08:08:54;101897.09;;;15.77;38.44
26563;BME280;14217;50.986;5.826;2023-03-03T08:14:00;101907.69;;;15.77;38.08
26563;BME280;14217;50.986;5.826;2023-03-03T08:19:03;101918.31;;;15.74;38.02
26563;BME280;14217;50.986;5.826;2023-03-03T08:24:05;101915.69;;;15.74;38.17
26563;BME280;14217;50.986;5.826;2023-03-03T08:29:08;101919.00;;;15.87;37.77
26563;BME280;14217;50.986;5.826;2023-03-03T08:34:10;101936.63;;;15.88;37.82
26563;BME280;14217;50.986;5.826;2023-03-03T08:39:12;101933.16;;;15.82;37.75
26563;BME280;14217;50.986;5.826;2023-03-03T08:44:14;101934.06;;;15.81;37.68
26563;BME280;14217;50.986;5.826;2023-03-03T08:49:16;101936.66;;;15.83;37.27
26563;BME280;14217;50.986;5.826;2023-03-03T08:54:18;101942.94;;;15.76;37.80
26563;BME280;14217;50.986;5.826;2023-03-03T08:59:20;101951.72;;;15.78;38.66
26563;BME280;14217;50.986;5.826;2023-03-03T09:04:22;101949.84;;;15.86;38.16
26563;BME280;14217;50.986;5.826;2023-03-03T09:09:24;101960.41;;;15.88;37.98
26563;BME280;14217;50.986;5.826;2023-03-03T09:14:27;101964.69;;;15.93;37.60
26563;BME280;14217;50.986;5.826;2023-03-03T09:19:32;101971.69;;;15.96;37.83
26563;BME280;14217;50.986;5.826;2023-03-03T09:24:37;101967.25;;;15.98;37.82
26563;BME280;14217;50.986;5.826;2023-03-03T09:29:39;101969.91;;;15.98;37.89
26563;BME280;14217;50.986;5.826;2023-03-03T09:34:42;101972.59;;;15.96;37.71
26563;BME280;14217;50.986;5.826;2023-03-03T09:39:46;101971.69;;;15.97;37.84
26563;BME280;14217;50.986;5.826;2023-03-03T09:50:09;101971.81;;;15.90;37.99
26563;BME280;14217;50.986;5.826;2023-03-03T10:06:04;101986.00;;;15.82;38.09
26563;BME280;14217;50.986;5.826;2023-03-03T10:27:24;101990.31;;;15.90;37.64
26563;BME280;14217;50.986;5.826;2023-03-03T11:20:41;101997.25;;;15.98;37.82
26563;BME280;14217;50.986;5.826;2023-03-03T11:42:10;101974.72;;;15.70;39.03
26563;BME280;14217;50.986;5.826;2023-03-03T11:47:21;101982.66;;;15.68;38.69
26563;BME280;14217;50.986;5.826;2023-03-03T11:52:29;101981.19;;;15.47;39.90
26563;BME280;14217;50.986;5.826;2023-03-03T12:03:13;101977.03;;;15.29;39.39
26563;BME280;14217;50.986;5.826;2023-03-03T12:08:41;101973.47;;;15.32;39.10
26563;BME280;14217;50.986;5.826;2023-03-03T12:19:26;101963.81;;;15.29;39.18
26563;BME280;14217;50.986;5.826;2023-03-03T12:29:56;101956.59;;;15.43;38.73
26563;BME280;14217;50.986;5.826;2023-03-03T12:35:11;101961.88;;;15.43;38.77
26563;BME280;14217;50.986;5.826;2023-03-03T12:45:50;101957.88;;;15.80;41.23
26563;BME280;14217;50.986;5.826;2023-03-03T12:56:07;101955.31;;;15.74;40.69
26563;BME280;14217;50.986;5.826;2023-03-03T13:06:29;101948.38;;;15.63;40.27
26563;BME280;14217;50.986;5.826;2023-03-03T13:22:18;101946.50;;;15.75;39.20
26563;BME280;14217;50.986;5.826;2023-03-03T13:27:31;101946.56;;;15.67;39.03
26563;BME280;14217;50.986;5.826;2023-03-03T13:32:43;101941.16;;;15.76;38.95
26563;BME280;14217;50.986;5.826;2023-03-03T13:37:52;101943.34;;;15.45;39.54
26563;BME280;14217;50.986;5.826;2023-03-03T13:59:02;101935.06;;;15.71;38.51
26563;BME280;14217;50.986;5.826;2023-03-03T14:04:13;101930.69;;;15.72;38.69
26563;BME280;14217;50.986;5.826;2023-03-03T14:19:51;101929.72;;;15.76;38.42
26563;BME280;14217;50.986;5.826;2023-03-03T14:25:07;101924.50;;;15.70;38.59
26563;BME280;14217;50.986;5.826;2023-03-03T14:35:34;101914.03;;;15.62;41.77
26563;BME280;14217;50.986;5.826;2023-03-03T14:40:38;101915.66;;;15.75;41.61
26563;BME280;14217;50.986;5.826;2023-03-03T14:45:43;101901.59;;;15.73;41.14
26563;BME280;14217;50.986;5.826;2023-03-03T14:51:14;101899.75;;;15.77;40.40
26563;BME280;14217;50.986;5.826;2023-03-03T14:56:36;101891.03;;;15.70;40.22
26563;BME280;14217;50.986;5.826;2023-03-03T15:01:38;101890.16;;;15.70;39.68
26563;BME280;14217;50.986;5.826;2023-03-03T15:06:47;101885.78;;;15.69;39.62
26563;BME280;14217;50.986;5.826;2023-03-03T15:11:54;101885.88;;;15.62;39.96
26563;BME280;14217;50.986;5.826;2023-03-03T15:22:39;101884.81;;;15.76;39.29
26563;BME280;14217;50.986;5.826;2023-03-03T15:27:53;101876.16;;;15.64;39.51
26563;BME280;14217;50.986;5.826;2023-03-03T15:38:48;101870.22;;;15.49;39.99
26563;BME280;14217;50.986;5.826;2023-03-03T15:43:59;101862.97;;;15.63;39.97
26563;BME280;14217;50.986;5.826;2023-03-03T15:54:39;101862.88;;;15.69;39.07
26563;BME280;14217;50.986;5.826;2023-03-03T16:05:03;101866.13;;;15.87;41.80
26563;BME280;14217;50.986;5.826;2023-03-03T16:10:18;101860.19;;;15.74;41.21
26563;BME280;14217;50.986;5.826;2023-03-03T16:31:51;101860.13;;;15.77;40.64
26563;BME280;14217;50.986;5.826;2023-03-03T16:37:06;101856.44;;;15.87;40.27
26563;BME280;14217;50.986;5.826;2023-03-03T16:47:32;101868.00;;;15.81;40.68
26563;BME280;14217;50.986;5.826;2023-03-03T16:53:00;101871.41;;;15.87;40.19
26563;BME280;14217;50.986;5.826;2023-03-03T17:03:43;101869.78;;;15.79;40.33
26563;BME280;14217;50.986;5.826;2023-03-03T17:52:51;101918.88;;;15.94;39.79
26563;BME280;14217;50.986;5.826;2023-03-03T17:58:10;101928.53;;;15.95;39.55
26563;BME280;14217;50.986;5.826;2023-03-03T18:25:10;101924.94;;;15.99;43.90
26563;BME280;14217;50.986;5.826;2023-03-03T18:40:32;101936.47;;;15.95;41.77
26563;BME280;14217;50.986;5.826;2023-03-03T18:50:48;101936.53;;;15.92;41.09
26563;BME280;14217;50.986;5.826;2023-03-03T18:55:53;101939.38;;;15.80;41.00
26563;BME280;14217;50.986;5.826;2023-03-03T19:01:13;101938.41;;;15.84;40.71
26563;BME280;14217;50.986;5.826;2023-03-03T19:11:48;101947.22;;;15.84;40.37
26563;BME280;14217;50.986;5.826;2023-03-03T19:16:51;101944.56;;;15.86;40.40
26563;BME280;14217;50.986;5.826;2023-03-03T19:22:21;101937.50;;;15.85;40.38
26563;BME280;14217;50.986;5.826;2023-03-03T19:27:32;101936.63;;;15.86;40.35
26563;BME280;14217;50.986;5.826;2023-03-03T19:33:00;101941.75;;;15.95;40.35
26563;BME280;14217;50.986;5.826;2023-03-03T20:00:02;101960.03;;;16.11;40.22
26563;BME280;14217;50.986;5.826;2023-03-03T20:05:20;101961.84;;;16.07;39.79
26563;BME280;14217;50.986;5.826;2023-03-03T20:10:34;101968.19;;;15.95;39.94
26563;BME280;14217;50.986;5.826;2023-03-03T20:26:30;101976.97;;;15.97;39.89
26563;BME280;14217;50.986;5.826;2023-03-03T20:58:31;101986.50;;;16.09;39.14
26563;BME280;14217;50.986;5.826;2023-03-03T21:03:54;101998.88;;;16.05;39.21
26563;BME280;14217;50.986;5.826;2023-03-03T21:14:28;101997.84;;;16.14;38.58
26563;BME280;14217;50.986;5.826;2023-03-03T21:19:32;102002.22;;;16.17;38.59
26563;BME280;14217;50.986;5.826;2023-03-03T21:24:55;102009.19;;;16.21;38.54
26563;BME280;14217;50.986;5.826;2023-03-03T21:30:14;102010.97;;;16.22;38.55
26563;BME280;14217;50.986;5.826;2023-03-03T21:35:18;102001.44;;;16.12;38.68
26563;BME280;14217;50.986;5.826;2023-03-03T21:40:26;102003.19;;;16.11;38.58
26563;BME280;14217;50.986;5.826;2023-03-03T21:45:29;101999.66;;;16.12;38.73
26563;BME280;14217;50.986;5.826;2023-03-03T21:50:31;102003.03;;;16.20;38.48
26563;BME280;14217;50.986;5.826;2023-03-03T21:55:36;101996.88;;;16.20;38.14
26563;BME280;14217;50.986;5.826;2023-03-03T22:00:38;101995.19;;;16.16;38.33
26563;BME280;14217;50.986;5.826;2023-03-03T22:05:40;102001.31;;;16.19;38.50
26563;BME280;14217;50.986;5.826;2023-03-03T22:10:43;101993.66;;;16.01;39.85
26563;BME280;14217;50.986;5.826;2023-03-03T22:15:46;101997.09;;;16.06;41.48
26563;BME280;14217;50.986;5.826;2023-03-03T22:20:48;101988.19;;;16.12;40.28
26563;BME280;14217;50.986;5.826;2023-03-03T22:25:51;101994.53;;;16.01;41.37
26563;BME280;14217;50.986;5.826;2023-03-03T22:30:53;101990.97;;;16.04;41.20
26563;BME280;14217;50.986;5.826;2023-03-03T22:35:56;101992.72;;;16.07;40.48
26563;BME280;14217;50.986;5.826;2023-03-03T22:40:58;101994.44;;;16.08;40.36
26563;BME280;14217;50.986;5.826;2023-03-03T22:46:00;101991.00;;;16.02;39.80
26563;BME280;14217;50.986;5.826;2023-03-03T22:51:02;101990.88;;;16.10;39.71
26563;BME280;14217;50.986;5.826;2023-03-03T22:56:05;101989.25;;;16.01;39.46
26563;BME280;14217;50.986;5.826;2023-03-03T23:01:07;101997.09;;;16.08;39.31
26563;BME280;14217;50.986;5.826;2023-03-03T23:06:09;101996.25;;;16.04;38.93
26563;BME280;14217;50.986;5.826;2023-03-03T23:11:11;101995.22;;;16.13;38.77
26563;BME280;14217;50.986;5.826;2023-03-03T23:16:13;101992.75;;;16.03;38.79
26563;BME280;14217;50.986;5.826;2023-03-03T23:21:15;101999.78;;;16.04;39.17
26563;BME280;14217;50.986;5.826;2023-03-03T23:26:17;102000.59;;;16.08;39.51
26563;BME280;14217;50.986;5.826;2023-03-03T23:31:19;101991.13;;;16.48;39.13
26563;BME280;14217;50.986;5.826;2023-03-03T23:36:21;101992.19;;;16.36;39.23
26563;BME280;14217;50.986;5.826;2023-03-03T23:41:23;101995.41;;;16.55;38.54
26563;BME280;14217;50.986;5.826;2023-03-03T23:46:25;101993.59;;;16.57;38.44
26563;BME280;14217;50.986;5.826;2023-03-03T23:51:27;101993.56;;;16.60;38.21
26563;BME280;14217;50.986;5.826;2023-03-03T23:56:29;102001.63;;;16.51;38.68
